createdAt,value
2017-08-27T00:00:05.647Z,13.20
2017-08-27T00:01:02.913Z,8.90
2017-08-27T00:02:00.170Z,8.80
2017-08-27T00:02:57.434Z,9.00
2017-08-27T00:03:54.697Z,15.50
2017-08-27T00:04:51.957Z,14.50
2017-08-27T00:05:49.205Z,10.80
2017-08-27T00:06:46.490Z,12.40
2017-08-27T00:07:43.803Z,11.10
2017-08-27T00:08:41.081Z,9.00
2017-08-27T00:09:38.337Z,11.00
2017-08-27T00:10:35.639Z,10.00
2017-08-27T00:11:32.965Z,12.00
2017-08-27T00:12:30.276Z,10.40
2017-08-27T00:13:27.554Z,11.60
2017-08-27T00:14:24.829Z,9.30
2017-08-27T00:15:22.073Z,9.80
2017-08-27T00:16:19.337Z,10.50
2017-08-27T00:17:16.616Z,10.00
2017-08-27T00:18:13.893Z,10.50
2017-08-27T00:19:11.146Z,9.60
2017-08-27T00:20:08.429Z,10.30
2017-08-27T00:21:05.685Z,9.90
2017-08-27T00:22:03.062Z,11.10
2017-08-27T00:23:00.345Z,11.20
2017-08-27T00:23:59.675Z,10.50
2017-08-27T00:24:56.927Z,12.40
2017-08-27T00:25:54.300Z,10.10
2017-08-27T00:26:51.647Z,16.80
2017-08-27T00:27:48.973Z,10.30
2017-08-27T00:28:46.230Z,12.20
2017-08-27T00:29:43.520Z,17.50
2017-08-27T00:30:40.794Z,18.60
2017-08-27T00:31:38.061Z,10.80
2017-08-27T00:32:35.337Z,11.70
2017-08-27T00:33:32.613Z,11.00
2017-08-27T00:34:29.878Z,10.60
2017-08-27T00:35:27.149Z,16.50
2017-08-27T00:36:24.419Z,13.30
2017-08-27T00:37:21.705Z,9.90
2017-08-27T00:38:18.942Z,12.00
2017-08-27T00:39:16.218Z,14.40
2017-08-27T00:40:13.469Z,10.30
2017-08-27T00:41:10.754Z,11.20
2017-08-27T00:42:08.001Z,11.50
2017-08-27T00:43:05.286Z,10.70
2017-08-27T00:44:02.556Z,13.20
2017-08-27T00:44:59.842Z,9.50
2017-08-27T00:45:57.113Z,11.60
2017-08-27T00:46:54.397Z,10.30
2017-08-27T00:47:51.670Z,10.30
2017-08-27T00:48:48.942Z,11.40
2017-08-27T00:49:46.201Z,13.10
2017-08-27T00:50:43.482Z,13.70
2017-08-27T00:51:40.746Z,14.10
2017-08-27T00:52:38.036Z,11.10
2017-08-27T00:53:35.323Z,21.40
2017-08-27T00:54:32.694Z,13.70
2017-08-27T00:55:29.959Z,14.10
2017-08-27T00:56:27.275Z,9.70
2017-08-27T00:57:24.590Z,11.10
2017-08-27T00:58:21.888Z,11.20
2017-08-27T00:59:19.152Z,12.10
2017-08-27T01:00:16.423Z,14.10
2017-08-27T01:01:13.669Z,9.80
2017-08-27T01:02:10.950Z,9.80
2017-08-27T01:03:08.242Z,8.40
2017-08-27T01:04:05.530Z,10.70
2017-08-27T01:05:02.830Z,12.00
2017-08-27T01:06:00.109Z,18.30
2017-08-27T01:06:57.373Z,15.40
2017-08-27T01:07:54.673Z,10.20
2017-08-27T01:08:51.951Z,13.50
2017-08-27T01:09:49.233Z,9.40
2017-08-27T01:10:46.505Z,13.30
2017-08-27T01:11:43.797Z,12.50
2017-08-27T01:12:41.061Z,11.30
2017-08-27T01:13:38.370Z,10.90
2017-08-27T01:14:35.633Z,10.30
2017-08-27T01:15:32.902Z,13.90
2017-08-27T01:16:30.167Z,10.90
2017-08-27T01:17:27.448Z,17.60
2017-08-27T01:18:24.917Z,15.80
2017-08-27T01:19:22.201Z,10.80
2017-08-27T01:20:19.486Z,19.20
2017-08-27T01:21:16.774Z,11.20
2017-08-27T01:22:14.041Z,14.40
2017-08-27T01:23:11.322Z,10.00
2017-08-27T01:24:08.593Z,10.50
2017-08-27T01:25:05.865Z,18.00
2017-08-27T01:26:03.117Z,11.10
2017-08-27T01:27:00.391Z,15.40
2017-08-27T01:27:57.634Z,12.10
2017-08-27T01:28:54.909Z,9.40
2017-08-27T01:29:52.162Z,11.50
2017-08-27T01:30:49.425Z,17.60
2017-08-27T01:31:46.673Z,10.30
2017-08-27T01:32:43.950Z,12.20
2017-08-27T01:33:41.201Z,10.40
2017-08-27T01:34:38.465Z,12.70
2017-08-27T01:35:35.722Z,12.70
2017-08-27T01:36:33.004Z,11.90
2017-08-27T01:37:30.254Z,14.00
2017-08-27T01:38:27.525Z,17.00
2017-08-27T01:39:24.770Z,11.90
2017-08-27T01:40:22.022Z,13.30
2017-08-27T01:41:19.272Z,9.50
2017-08-27T01:42:16.545Z,10.50
2017-08-27T01:43:13.804Z,12.80
2017-08-27T01:44:11.089Z,17.30
2017-08-27T01:45:08.336Z,12.80
2017-08-27T01:46:05.593Z,12.90
2017-08-27T01:47:02.849Z,11.00
2017-08-27T01:48:00.117Z,11.00
2017-08-27T01:48:57.379Z,11.10
2017-08-27T01:49:54.662Z,10.10
2017-08-27T01:50:51.930Z,12.70
2017-08-27T01:51:49.212Z,10.80
2017-08-27T01:52:46.458Z,13.10
2017-08-27T01:53:43.731Z,13.60
2017-08-27T01:54:41.022Z,10.60
2017-08-27T01:55:38.293Z,13.10
2017-08-27T01:56:35.548Z,10.70
2017-08-27T01:57:32.837Z,15.30
2017-08-27T01:58:30.108Z,14.20
2017-08-27T01:59:27.429Z,11.00
2017-08-27T02:00:24.722Z,10.60
2017-08-27T02:01:21.997Z,11.50
2017-08-27T02:02:19.248Z,9.90
2017-08-27T02:03:16.518Z,13.70
2017-08-27T02:04:13.782Z,10.80
2017-08-27T02:05:11.091Z,10.60
2017-08-27T02:06:08.347Z,13.20
2017-08-27T02:07:05.606Z,13.30
2017-08-27T02:08:02.873Z,17.40
2017-08-27T02:09:00.149Z,12.00
2017-08-27T02:09:57.434Z,12.30
2017-08-27T02:10:54.732Z,8.70
2017-08-27T02:11:52.002Z,11.60
2017-08-27T02:12:49.386Z,11.40
2017-08-27T02:13:46.645Z,14.00
2017-08-27T02:14:43.942Z,11.60
2017-08-27T02:15:41.209Z,10.60
2017-08-27T02:16:38.850Z,11.70
2017-08-27T02:17:36.121Z,11.10
2017-08-27T02:18:33.398Z,10.20
2017-08-27T02:19:30.645Z,13.90
2017-08-27T02:20:27.942Z,10.30
2017-08-27T02:21:25.239Z,9.30
2017-08-27T02:22:22.501Z,11.40
2017-08-27T02:23:19.754Z,17.80
2017-08-27T02:24:17.017Z,10.60
2017-08-27T02:25:14.321Z,10.90
2017-08-27T02:26:11.616Z,11.30
2017-08-27T02:27:09.085Z,11.60
2017-08-27T02:28:06.365Z,15.00
2017-08-27T02:29:03.626Z,10.30
2017-08-27T02:30:00.885Z,12.40
2017-08-27T02:30:58.186Z,11.30
2017-08-27T02:31:55.458Z,10.70
2017-08-27T02:32:52.798Z,12.00
2017-08-27T02:33:50.061Z,10.80
2017-08-27T02:34:47.311Z,10.10
2017-08-27T02:35:44.602Z,11.80
2017-08-27T02:36:41.881Z,11.20
2017-08-27T02:37:39.175Z,10.10
2017-08-27T02:38:36.439Z,12.70
2017-08-27T02:39:33.709Z,10.70
2017-08-27T02:40:30.995Z,13.70
2017-08-27T02:41:28.271Z,12.20
2017-08-27T02:42:25.542Z,12.60
2017-08-27T02:43:22.822Z,11.10
2017-08-27T02:44:20.098Z,15.80
2017-08-27T02:45:17.380Z,11.40
2017-08-27T02:46:14.656Z,11.40
2017-08-27T02:47:11.951Z,11.00
2017-08-27T02:48:09.238Z,11.10
2017-08-27T02:49:06.517Z,11.90
2017-08-27T02:50:03.829Z,12.40
2017-08-27T02:51:01.186Z,12.60
2017-08-27T02:51:58.438Z,15.10
2017-08-27T02:52:55.713Z,10.10
2017-08-27T02:53:52.969Z,12.80
2017-08-27T02:54:50.233Z,19.40
2017-08-27T02:55:47.507Z,22.00
2017-08-27T02:56:44.811Z,11.80
2017-08-27T02:57:42.082Z,12.00
2017-08-27T02:58:39.349Z,15.70
2017-08-27T02:59:36.603Z,12.00
2017-08-27T03:00:33.870Z,11.20
2017-08-27T03:01:31.138Z,11.60
2017-08-27T03:02:28.416Z,11.90
2017-08-27T03:03:25.674Z,12.40
2017-08-27T03:04:22.958Z,13.50
2017-08-27T03:05:20.226Z,14.20
2017-08-27T03:06:17.505Z,15.60
2017-08-27T03:07:14.741Z,11.90
2017-08-27T03:08:12.486Z,13.20
2017-08-27T03:09:09.877Z,11.70
2017-08-27T03:10:07.138Z,13.80
2017-08-27T03:11:04.385Z,14.30
2017-08-27T03:12:01.683Z,11.30
2017-08-27T03:12:58.964Z,11.40
2017-08-27T03:13:56.234Z,12.20
2017-08-27T03:14:53.497Z,11.60
2017-08-27T03:15:50.758Z,13.20
2017-08-27T03:16:48.031Z,13.30
2017-08-27T03:17:45.286Z,11.60
2017-08-27T03:18:42.526Z,10.90
2017-08-27T03:19:39.890Z,13.60
2017-08-27T03:20:37.161Z,13.10
2017-08-27T03:21:34.458Z,12.40
2017-08-27T03:22:31.722Z,16.50
2017-08-27T03:23:28.981Z,11.80
2017-08-27T03:24:26.219Z,11.10
2017-08-27T03:25:23.586Z,11.70
2017-08-27T03:26:20.858Z,13.40
2017-08-27T03:27:18.158Z,12.00
2017-08-27T03:28:15.425Z,12.70
2017-08-27T03:29:12.694Z,14.80
2017-08-27T03:30:09.956Z,12.60
2017-08-27T03:31:07.225Z,11.10
2017-08-27T03:32:04.507Z,12.30
2017-08-27T03:33:01.782Z,15.60
2017-08-27T03:33:59.039Z,13.80
2017-08-27T03:34:56.307Z,12.10
2017-08-27T03:35:53.604Z,13.40
2017-08-27T03:36:50.918Z,11.10
2017-08-27T03:37:48.185Z,11.50
2017-08-27T03:38:45.461Z,16.10
2017-08-27T03:39:42.706Z,13.30
2017-08-27T03:40:39.963Z,13.70
2017-08-27T03:41:37.229Z,11.70
2017-08-27T03:42:34.514Z,12.30
2017-08-27T03:43:31.757Z,17.00
2017-08-27T03:44:29.025Z,17.70
2017-08-27T03:45:26.276Z,12.20
2017-08-27T03:46:23.545Z,15.40
2017-08-27T03:47:20.811Z,12.80
2017-08-27T03:48:18.077Z,21.50
2017-08-27T03:49:15.326Z,11.60
2017-08-27T03:50:12.585Z,15.80
2017-08-27T03:51:09.854Z,14.70
2017-08-27T03:52:07.187Z,13.20
2017-08-27T03:53:04.474Z,12.50
2017-08-27T03:54:01.746Z,20.60
2017-08-27T03:54:58.998Z,17.00
2017-08-27T03:55:56.269Z,11.90
2017-08-27T03:56:53.558Z,13.50
2017-08-27T03:57:50.833Z,11.80
2017-08-27T03:58:48.095Z,19.00
2017-08-27T03:59:45.338Z,12.70
2017-08-27T04:00:42.597Z,14.40
2017-08-27T04:01:39.957Z,12.30
2017-08-27T04:02:37.215Z,15.40
2017-08-27T04:03:34.482Z,12.20
2017-08-27T04:04:31.786Z,13.80
2017-08-27T04:05:29.072Z,11.00
2017-08-27T04:06:26.350Z,14.30
2017-08-27T04:07:23.610Z,17.90
2017-08-27T04:08:20.881Z,16.90
2017-08-27T04:09:18.178Z,15.90
2017-08-27T04:10:15.469Z,17.70
2017-08-27T04:11:12.731Z,12.70
2017-08-27T04:12:09.998Z,13.60
2017-08-27T04:13:07.294Z,13.50
2017-08-27T04:14:04.562Z,12.30
2017-08-27T04:15:01.847Z,12.30
2017-08-27T04:15:59.116Z,14.50
2017-08-27T04:16:56.393Z,14.60
2017-08-27T04:17:53.682Z,17.40
2017-08-27T04:18:50.966Z,12.80
2017-08-27T04:19:48.242Z,13.30
2017-08-27T04:20:45.528Z,12.90
2017-08-27T04:21:42.783Z,14.30
2017-08-27T04:22:40.060Z,15.50
2017-08-27T04:23:37.331Z,13.70
2017-08-27T04:24:34.626Z,15.00
2017-08-27T04:25:31.890Z,12.90
2017-08-27T04:26:29.168Z,11.40
2017-08-27T04:27:26.421Z,14.00
2017-08-27T04:28:23.727Z,15.70
2017-08-27T04:29:20.978Z,16.70
2017-08-27T04:30:18.286Z,16.00
2017-08-27T04:31:17.586Z,13.20
2017-08-27T04:32:14.849Z,12.10
2017-08-27T04:33:12.165Z,17.80
2017-08-27T04:34:09.596Z,14.30
2017-08-27T04:35:06.861Z,13.20
2017-08-27T04:36:04.162Z,15.50
2017-08-27T04:37:01.433Z,13.80
2017-08-27T04:37:58.706Z,14.70
2017-08-27T04:38:56.019Z,15.70
2017-08-27T04:39:53.438Z,14.10
2017-08-27T04:40:50.706Z,16.00
2017-08-27T04:41:47.994Z,13.50
2017-08-27T04:42:45.257Z,15.20
2017-08-27T04:43:42.594Z,15.60
2017-08-27T04:44:39.845Z,12.20
2017-08-27T04:45:37.150Z,17.40
2017-08-27T04:46:34.746Z,15.20
2017-08-27T04:47:32.124Z,15.20
2017-08-27T04:48:29.441Z,15.50
2017-08-27T04:49:26.735Z,15.10
2017-08-27T04:50:24.002Z,13.60
2017-08-27T04:51:21.286Z,16.10
2017-08-27T04:52:18.554Z,20.80
2017-08-27T04:53:15.898Z,13.40
2017-08-27T04:54:13.163Z,12.70
2017-08-27T04:55:10.441Z,21.50
2017-08-27T04:56:07.695Z,14.70
2017-08-27T04:57:04.974Z,15.30
2017-08-27T04:58:02.230Z,13.80
2017-08-27T04:58:59.552Z,12.50
2017-08-27T04:59:56.815Z,13.70
2017-08-27T05:00:54.601Z,12.60
2017-08-27T05:01:51.853Z,13.60
2017-08-27T05:02:49.129Z,12.00
2017-08-27T05:03:46.378Z,18.40
2017-08-27T05:04:43.725Z,19.90
2017-08-27T05:05:41.009Z,14.80
2017-08-27T05:06:38.438Z,17.10
2017-08-27T05:07:35.742Z,16.80
2017-08-27T05:08:33.022Z,16.80
2017-08-27T05:09:30.347Z,14.20
2017-08-27T05:10:27.709Z,14.00
2017-08-27T05:11:25.049Z,14.30
2017-08-27T05:12:22.319Z,15.30
2017-08-27T05:13:19.590Z,13.90
2017-08-27T05:14:16.935Z,15.40
2017-08-27T05:15:14.171Z,14.40
2017-08-27T05:16:11.433Z,14.50
2017-08-27T05:17:08.694Z,15.00
2017-08-27T05:18:05.974Z,14.20
2017-08-27T05:19:03.221Z,17.70
2017-08-27T05:20:00.510Z,13.90
2017-08-27T05:20:57.769Z,12.60
2017-08-27T05:21:55.029Z,13.90
2017-08-27T05:22:52.278Z,16.20
2017-08-27T05:23:49.548Z,13.70
2017-08-27T05:24:46.806Z,19.60
2017-08-27T05:25:44.098Z,18.10
2017-08-27T05:26:41.353Z,13.70
2017-08-27T05:27:41.586Z,14.00
2017-08-27T05:28:38.850Z,19.30
2017-08-27T05:29:36.177Z,13.50
2017-08-27T05:30:33.535Z,15.30
2017-08-27T05:31:30.806Z,16.70
2017-08-27T05:32:28.181Z,13.60
2017-08-27T05:33:25.437Z,16.50
2017-08-27T05:34:22.704Z,17.60
2017-08-27T05:35:20.177Z,15.20
2017-08-27T05:36:17.482Z,13.80
2017-08-27T05:37:14.770Z,16.20
2017-08-27T05:38:12.060Z,14.40
2017-08-27T05:39:09.314Z,13.60
2017-08-27T05:40:06.641Z,14.30
2017-08-27T05:41:03.918Z,15.60
2017-08-27T05:42:01.201Z,17.70
2017-08-27T05:42:58.465Z,16.80
2017-08-27T05:43:55.746Z,17.10
2017-08-27T05:44:52.995Z,15.10
2017-08-27T05:45:50.320Z,15.40
2017-08-27T05:46:47.558Z,14.90
2017-08-27T05:47:44.852Z,16.80
2017-08-27T05:48:42.163Z,12.50
2017-08-27T05:49:39.442Z,15.80
2017-08-27T05:50:36.732Z,16.50
2017-08-27T05:51:34.016Z,16.10
2017-08-27T05:52:31.294Z,18.10
2017-08-27T05:53:28.586Z,15.10
2017-08-27T05:54:25.854Z,20.30
2017-08-27T05:55:23.150Z,18.20
2017-08-27T05:56:20.454Z,18.20
2017-08-27T05:57:17.746Z,18.70
2017-08-27T05:58:15.004Z,19.00
2017-08-27T05:59:12.329Z,20.40
2017-08-27T06:00:09.619Z,16.20
2017-08-27T06:01:07.170Z,28.60
2017-08-27T06:02:04.438Z,24.20
2017-08-27T06:03:01.725Z,21.90
2017-08-27T06:03:59.002Z,17.40
2017-08-27T06:04:56.296Z,18.10
2017-08-27T06:05:53.613Z,17.70
2017-08-27T06:06:50.878Z,17.00
2017-08-27T06:07:48.139Z,16.30
2017-08-27T06:08:45.429Z,16.80
2017-08-27T06:09:42.709Z,18.90
2017-08-27T06:10:40.054Z,15.70
2017-08-27T06:11:37.386Z,19.80
2017-08-27T06:12:34.753Z,18.20
2017-08-27T06:13:32.066Z,23.30
2017-08-27T06:14:29.461Z,21.90
2017-08-27T06:15:26.918Z,20.60
2017-08-27T06:16:24.281Z,16.90
2017-08-27T06:17:21.603Z,17.40
2017-08-27T06:18:18.966Z,16.60
2017-08-27T06:19:16.339Z,19.60
2017-08-27T06:20:13.663Z,22.10
2017-08-27T06:21:11.163Z,20.60
2017-08-27T06:22:08.546Z,18.20
2017-08-27T06:23:05.860Z,24.40
2017-08-27T06:24:03.234Z,20.40
2017-08-27T06:25:00.624Z,21.40
2017-08-27T06:25:58.109Z,19.80
2017-08-27T06:26:55.402Z,21.60
2017-08-27T06:27:52.715Z,19.40
2017-08-27T06:28:50.130Z,23.90
2017-08-27T06:29:47.527Z,20.10
2017-08-27T06:30:44.870Z,20.20
2017-08-27T06:31:42.348Z,19.40
2017-08-27T06:32:40.135Z,19.50
2017-08-27T06:33:37.470Z,19.80
2017-08-27T06:34:34.810Z,22.70
2017-08-27T06:35:32.230Z,17.80
2017-08-27T06:36:29.654Z,20.00
2017-08-27T06:37:27.062Z,21.40
2017-08-27T06:38:24.387Z,18.50
2017-08-27T06:39:21.833Z,23.70
2017-08-27T06:40:19.338Z,19.70
2017-08-27T06:41:17.058Z,18.70
2017-08-27T06:42:14.540Z,20.90
2017-08-27T06:43:12.111Z,22.10
2017-08-27T06:44:09.517Z,20.60
2017-08-27T06:45:06.927Z,18.90
2017-08-27T06:46:04.246Z,19.20
2017-08-27T06:47:01.663Z,20.50
2017-08-27T06:47:59.010Z,19.30
2017-08-27T06:48:56.471Z,20.20
2017-08-27T06:49:54.085Z,23.40
2017-08-27T06:50:51.421Z,19.10
2017-08-27T06:51:48.884Z,19.10
2017-08-27T06:52:46.451Z,20.00
2017-08-27T06:53:44.626Z,19.00
2017-08-27T06:54:44.203Z,19.70
2017-08-27T06:55:41.593Z,20.70
2017-08-27T06:56:38.954Z,24.30
2017-08-27T06:57:36.259Z,24.90
2017-08-27T06:58:33.655Z,23.30
2017-08-27T06:59:31.313Z,27.90
2017-08-27T07:00:28.884Z,21.70
2017-08-27T07:01:26.665Z,21.50
2017-08-27T07:02:24.049Z,21.80
2017-08-27T07:03:21.502Z,25.90
2017-08-27T07:04:18.837Z,23.00
2017-08-27T07:05:16.141Z,25.10
2017-08-27T07:06:13.524Z,25.40
2017-08-27T07:07:10.926Z,22.90
2017-08-27T07:08:08.338Z,22.70
2017-08-27T07:09:05.682Z,25.70
2017-08-27T07:10:03.031Z,25.30
2017-08-27T07:11:00.613Z,20.50
2017-08-27T07:11:58.149Z,23.10
2017-08-27T07:12:55.588Z,23.30
2017-08-27T07:13:53.234Z,23.40
2017-08-27T07:14:50.576Z,24.70
2017-08-27T07:15:48.029Z,28.90
2017-08-27T07:16:45.370Z,26.60
2017-08-27T07:17:42.839Z,29.10
2017-08-27T07:18:40.404Z,25.40
2017-08-27T07:19:37.805Z,24.60
2017-08-27T07:20:35.239Z,30.40
2017-08-27T07:21:33.518Z,23.60
2017-08-27T07:22:30.923Z,31.40
2017-08-27T07:23:28.431Z,29.80
2017-08-27T07:24:25.893Z,28.80
2017-08-27T07:25:23.547Z,30.20
2017-08-27T07:26:20.856Z,29.40
2017-08-27T07:27:18.414Z,35.00
2017-08-27T07:28:15.810Z,27.90
2017-08-27T07:29:13.119Z,28.50
2017-08-27T07:30:10.621Z,35.20
2017-08-27T07:31:10.085Z,30.70
2017-08-27T07:32:07.482Z,31.80
2017-08-27T07:33:05.728Z,29.50
2017-08-27T07:34:03.034Z,28.80
2017-08-27T07:35:00.707Z,27.20
2017-08-27T07:35:57.986Z,30.20
2017-08-27T07:36:55.430Z,38.60
2017-08-27T07:37:52.902Z,36.50
2017-08-27T07:38:50.529Z,33.80
2017-08-27T07:39:47.906Z,33.30
2017-08-27T07:40:45.235Z,33.00
2017-08-27T07:41:42.672Z,34.00
2017-08-27T07:42:41.460Z,34.40
2017-08-27T07:43:40.559Z,32.30
2017-08-27T07:44:37.910Z,31.80
2017-08-27T07:45:35.343Z,35.40
2017-08-27T07:46:33.621Z,34.50
2017-08-27T07:47:30.947Z,36.10
2017-08-27T07:48:28.318Z,30.50
2017-08-27T07:49:25.658Z,34.50
2017-08-27T07:50:23.194Z,34.40
2017-08-27T07:51:20.958Z,28.00
2017-08-27T07:52:18.791Z,32.20
2017-08-27T07:53:18.963Z,27.20
2017-08-27T07:54:16.343Z,29.30
2017-08-27T07:55:14.583Z,28.90
2017-08-27T07:56:12.095Z,28.60
2017-08-27T07:57:10.085Z,26.40
2017-08-27T07:58:07.582Z,28.00
2017-08-27T07:59:04.936Z,30.30
2017-08-27T08:00:02.418Z,35.00
2017-08-27T08:00:59.826Z,31.80
2017-08-27T08:01:57.261Z,34.30
2017-08-27T08:02:55.934Z,33.90
2017-08-27T08:03:53.686Z,31.10
2017-08-27T08:04:52.933Z,30.00
2017-08-27T08:05:50.729Z,30.70
2017-08-27T08:06:48.274Z,31.00
2017-08-27T08:07:47.820Z,32.20
2017-08-27T08:08:46.173Z,28.00
2017-08-27T08:09:43.510Z,29.10
2017-08-27T08:10:40.877Z,32.90
2017-08-27T08:11:38.235Z,29.60
2017-08-27T08:12:35.735Z,36.00
2017-08-27T08:13:33.156Z,35.10
2017-08-27T08:14:30.498Z,28.10
2017-08-27T08:15:27.884Z,30.90
2017-08-27T08:16:25.195Z,30.60
2017-08-27T08:17:22.520Z,31.50
2017-08-27T08:18:19.994Z,29.20
2017-08-27T08:19:17.327Z,28.70
2017-08-27T08:20:14.802Z,28.20
2017-08-27T08:21:12.255Z,28.10
2017-08-27T08:22:09.655Z,29.90
2017-08-27T08:23:06.978Z,30.00
2017-08-27T08:24:04.460Z,30.90
2017-08-27T08:25:02.154Z,28.20
2017-08-27T08:25:59.533Z,27.40
2017-08-27T08:26:56.922Z,34.00
2017-08-27T08:27:54.258Z,33.20
2017-08-27T08:28:51.640Z,29.90
2017-08-27T08:29:49.264Z,32.80
2017-08-27T08:30:47.090Z,30.60
2017-08-27T08:31:44.591Z,34.80
2017-08-27T08:32:42.107Z,31.80
2017-08-27T08:33:40.718Z,37.60
2017-08-27T08:34:38.123Z,29.90
2017-08-27T08:35:35.731Z,29.80
2017-08-27T08:36:33.080Z,34.30
2017-08-27T08:37:30.466Z,38.30
2017-08-27T08:38:27.892Z,28.50
2017-08-27T08:39:25.318Z,30.80
2017-08-27T08:40:22.739Z,32.90
2017-08-27T08:41:20.087Z,36.10
2017-08-27T08:42:17.586Z,31.60
2017-08-27T08:43:14.910Z,37.90
2017-08-27T08:44:12.347Z,31.70
2017-08-27T08:45:09.666Z,32.30
2017-08-27T08:46:06.979Z,36.50
2017-08-27T08:47:04.302Z,33.80
2017-08-27T08:48:01.745Z,35.60
2017-08-27T08:48:59.045Z,37.60
2017-08-27T08:49:56.401Z,35.10
2017-08-27T08:50:53.682Z,32.90
2017-08-27T08:51:51.036Z,34.60
2017-08-27T08:52:48.466Z,32.30
2017-08-27T08:53:45.797Z,34.80
2017-08-27T08:54:43.174Z,36.30
2017-08-27T08:55:40.510Z,42.20
2017-08-27T08:56:37.909Z,47.70
2017-08-27T08:57:35.222Z,41.20
2017-08-27T08:58:32.639Z,39.30
2017-08-27T08:59:30.031Z,41.40
2017-08-27T09:00:27.337Z,48.00
2017-08-27T09:01:24.650Z,39.10
2017-08-27T09:02:22.040Z,46.80
2017-08-27T09:03:19.498Z,44.40
2017-08-27T09:04:16.807Z,44.60
2017-08-27T09:05:14.141Z,46.10
2017-08-27T09:06:11.433Z,48.50
2017-08-27T09:07:08.771Z,43.90
2017-08-27T09:08:06.067Z,44.90
2017-08-27T09:09:03.446Z,42.20
2017-08-27T09:10:00.785Z,42.90
2017-08-27T09:10:58.090Z,47.80
2017-08-27T09:11:55.383Z,40.20
2017-08-27T09:12:52.707Z,44.40
2017-08-27T09:13:50.003Z,41.30
2017-08-27T09:14:47.307Z,35.60
2017-08-27T09:15:44.602Z,38.20
2017-08-27T09:16:41.906Z,39.30
2017-08-27T09:17:39.198Z,40.10
2017-08-27T09:18:36.482Z,41.20
2017-08-27T09:19:33.781Z,41.90
2017-08-27T09:20:31.114Z,46.70
2017-08-27T09:21:30.459Z,41.50
2017-08-27T09:22:27.774Z,39.20
2017-08-27T09:23:25.057Z,38.80
2017-08-27T09:24:22.399Z,47.30
2017-08-27T09:25:19.778Z,38.50
2017-08-27T09:26:17.154Z,39.00
2017-08-27T09:27:14.502Z,43.40
2017-08-27T09:28:12.189Z,46.50
2017-08-27T09:29:09.738Z,41.90
2017-08-27T09:30:07.434Z,42.70
2017-08-27T09:31:04.742Z,43.10
2017-08-27T09:32:02.245Z,43.50
2017-08-27T09:33:00.664Z,46.20
2017-08-27T09:33:58.301Z,47.00
2017-08-27T09:34:55.810Z,40.30
2017-08-27T09:35:53.231Z,44.90
2017-08-27T09:36:50.553Z,50.70
2017-08-27T09:37:48.749Z,49.60
2017-08-27T09:38:46.278Z,44.40
2017-08-27T09:39:43.621Z,46.00
2017-08-27T09:40:41.141Z,48.50
2017-08-27T09:41:38.446Z,45.40
2017-08-27T09:42:35.955Z,45.50
2017-08-27T09:43:33.266Z,50.50
2017-08-27T09:44:30.733Z,45.70
2017-08-27T09:45:28.212Z,45.20
2017-08-27T09:46:25.559Z,45.30
2017-08-27T09:47:23.008Z,45.30
2017-08-27T09:48:20.291Z,52.60
2017-08-27T09:49:17.728Z,51.00
2017-08-27T09:50:15.137Z,51.10
2017-08-27T09:51:12.474Z,44.30
2017-08-27T09:52:09.781Z,46.70
2017-08-27T09:53:07.103Z,55.40
2017-08-27T09:54:04.398Z,47.10
2017-08-27T09:55:02.258Z,42.50
2017-08-27T09:55:59.655Z,47.40
2017-08-27T09:56:56.945Z,63.40
2017-08-27T09:57:54.217Z,51.30
2017-08-27T09:58:52.576Z,49.90
2017-08-27T09:59:49.856Z,45.60
2017-08-27T10:00:47.427Z,50.70
2017-08-27T10:01:45.383Z,44.80
2017-08-27T10:02:43.101Z,44.10
2017-08-27T10:03:40.570Z,43.50
2017-08-27T10:04:38.347Z,42.00
2017-08-27T10:05:35.662Z,41.30
2017-08-27T10:06:33.038Z,47.20
2017-08-27T10:07:32.099Z,49.10
2017-08-27T10:08:30.167Z,47.80
2017-08-27T10:09:27.459Z,50.40
2017-08-27T10:10:24.987Z,56.70
2017-08-27T10:11:23.775Z,43.00
2017-08-27T10:12:22.300Z,46.60
2017-08-27T10:13:21.671Z,48.40
2017-08-27T10:14:19.166Z,58.30
2017-08-27T10:15:16.550Z,51.20
2017-08-27T10:16:13.878Z,50.00
2017-08-27T10:17:11.179Z,44.70
2017-08-27T10:18:08.499Z,46.00
2017-08-27T10:19:05.949Z,46.50
2017-08-27T10:20:14.966Z,39.40
2017-08-27T10:21:13.645Z,49.70
2017-08-27T10:22:11.944Z,46.40
2017-08-27T10:23:10.448Z,46.30
2017-08-27T10:24:07.863Z,44.30
2017-08-27T10:25:06.715Z,49.10
2017-08-27T10:26:04.018Z,42.00
2017-08-27T10:27:09.182Z,45.90
2017-08-27T10:28:08.375Z,44.90
2017-08-27T10:29:07.581Z,42.80
2017-08-27T10:30:05.146Z,45.40
2017-08-27T10:31:02.434Z,46.70
2017-08-27T10:31:59.751Z,45.20
2017-08-27T10:32:57.092Z,51.70
2017-08-27T10:33:54.467Z,51.70
2017-08-27T10:34:51.902Z,42.50
2017-08-27T10:35:49.294Z,48.80
2017-08-27T10:36:46.606Z,45.10
2017-08-27T10:37:43.956Z,43.60
2017-08-27T10:38:41.276Z,49.60
2017-08-27T10:39:38.599Z,46.20
2017-08-27T10:40:35.902Z,44.00
2017-08-27T10:41:33.238Z,43.90
2017-08-27T10:42:30.532Z,40.50
2017-08-27T10:43:27.838Z,43.70
2017-08-27T10:44:25.129Z,44.90
2017-08-27T10:45:22.422Z,43.00
2017-08-27T10:46:19.750Z,47.50
2017-08-27T10:47:17.190Z,44.40
2017-08-27T10:48:14.522Z,46.00
2017-08-27T10:49:11.812Z,46.00
2017-08-27T10:50:09.095Z,43.50
2017-08-27T10:51:06.371Z,44.10
2017-08-27T10:52:03.633Z,51.50
2017-08-27T10:53:01.002Z,47.90
2017-08-27T10:53:58.374Z,49.60
2017-08-27T10:54:55.673Z,51.90
2017-08-27T10:55:52.986Z,45.40
2017-08-27T10:56:50.943Z,49.00
2017-08-27T10:57:48.300Z,43.10
2017-08-27T10:58:45.618Z,43.80
2017-08-27T10:59:44.504Z,44.50
2017-08-27T11:00:42.752Z,39.70
2017-08-27T11:01:40.613Z,48.50
2017-08-27T11:02:38.308Z,40.90
2017-08-27T11:03:35.622Z,40.80
2017-08-27T11:04:32.894Z,52.60
2017-08-27T11:05:30.170Z,44.40
2017-08-27T11:06:27.482Z,37.10
2017-08-27T11:07:24.792Z,38.10
2017-08-27T11:08:22.093Z,39.20
2017-08-27T11:09:19.404Z,43.10
2017-08-27T11:10:17.090Z,37.60
2017-08-27T11:11:14.393Z,40.50
2017-08-27T11:12:11.793Z,43.90
2017-08-27T11:13:09.240Z,43.30
2017-08-27T11:14:06.737Z,40.40
2017-08-27T11:15:04.069Z,42.50
2017-08-27T11:16:01.448Z,38.60
2017-08-27T11:17:00.857Z,44.50
2017-08-27T11:17:58.141Z,39.90
2017-08-27T11:18:55.510Z,42.10
2017-08-27T11:19:53.878Z,41.10
2017-08-27T11:20:51.220Z,42.20
2017-08-27T11:21:49.068Z,42.40
2017-08-27T11:22:46.384Z,42.10
2017-08-27T11:23:43.683Z,33.70
2017-08-27T11:24:40.976Z,38.50
2017-08-27T11:25:38.257Z,41.70
2017-08-27T11:26:35.547Z,41.40
2017-08-27T11:27:32.805Z,40.40
2017-08-27T11:28:30.086Z,33.90
2017-08-27T11:29:27.370Z,35.30
2017-08-27T11:30:24.695Z,32.00
2017-08-27T11:31:25.933Z,30.70
2017-08-27T11:32:23.211Z,38.50
2017-08-27T11:33:20.495Z,33.80
2017-08-27T11:34:18.065Z,32.40
2017-08-27T11:35:15.646Z,37.40
2017-08-27T11:36:12.960Z,35.80
2017-08-27T11:37:10.234Z,37.10
2017-08-27T11:38:07.557Z,35.30
2017-08-27T11:39:04.882Z,34.40
2017-08-27T11:40:02.546Z,36.40
2017-08-27T11:41:00.250Z,30.80
2017-08-27T11:41:57.593Z,34.50
2017-08-27T11:42:54.904Z,38.90
2017-08-27T11:43:52.233Z,34.80
2017-08-27T11:44:49.794Z,39.20
2017-08-27T11:45:47.282Z,29.00
2017-08-27T11:46:44.622Z,28.20
2017-08-27T11:47:42.034Z,34.60
2017-08-27T11:48:39.419Z,28.50
2017-08-27T11:49:37.601Z,27.00
2017-08-27T11:50:34.878Z,26.00
2017-08-27T11:51:32.169Z,28.30
2017-08-27T11:52:29.473Z,25.60
2017-08-27T11:53:26.874Z,25.60
2017-08-27T11:54:24.292Z,23.40
2017-08-27T11:55:21.670Z,27.30
2017-08-27T11:56:18.970Z,27.80
2017-08-27T11:57:16.310Z,22.70
2017-08-27T11:58:13.694Z,27.30
2017-08-27T11:59:10.991Z,23.40
2017-08-27T12:00:08.318Z,22.80
2017-08-27T12:01:05.615Z,27.00
2017-08-27T12:02:02.926Z,21.40
2017-08-27T12:03:00.198Z,25.60
2017-08-27T12:03:57.474Z,22.70
2017-08-27T12:04:54.841Z,27.30
2017-08-27T12:05:52.122Z,28.20
2017-08-27T12:06:49.420Z,26.30
2017-08-27T12:07:46.697Z,25.30
2017-08-27T12:08:44.088Z,20.80
2017-08-27T12:09:41.790Z,22.70
2017-08-27T12:10:39.453Z,19.80
2017-08-27T12:11:37.942Z,23.30
2017-08-27T12:12:35.333Z,27.50
2017-08-27T12:13:33.238Z,19.80
2017-08-27T12:14:31.298Z,21.50
2017-08-27T12:15:30.596Z,20.50
2017-08-27T12:16:28.353Z,16.90
2017-08-27T12:17:25.754Z,23.30
2017-08-27T12:18:23.857Z,27.10
2017-08-27T12:20:32.330Z,22.10
2017-08-27T12:21:29.700Z,18.50